Time;durP1;ratioP1;P1;durP2;ratioP2;P2;SDS_P1;SDS_P2;PMS_P1;PMS_P2;Temp;Humidity;BMP_temperature;BMP_pressure;BME280_temperature;BME280_humidity;BME280_pressure;Samples;Min_cycle;Max_cycle;Signal;HPM_P1;HPM_P2
2022/01/07 00:01:01;;;;;;;14.30;7.30;;;-0.50;99.90;;;;;;5053000;28;20167;-68
2022/01/07 00:03:27;;;;;;;17.20;7.57;;;-0.60;99.90;;;;;;5051471;28;20112;-67
2022/01/07 00:05:53;;;;;;;22.02;7.78;;;-0.70;99.90;;;;;;5051789;28;20469;-68
2022/01/07 00:08:20;;;;;;;15.00;7.75;;;-0.70;99.90;;;;;;5050754;28;20025;-67
2022/01/07 00:10:46;;;;;;;14.68;7.70;;;-0.70;99.90;;;;;;5052866;28;20488;-66
2022/01/07 00:13:13;;;;;;;13.98;6.85;;;-0.70;99.90;;;;;;5051553;28;20102;-67
2022/01/07 00:15:40;;;;;;;24.15;10.05;;;-0.70;99.90;;;;;;5051101;28;20036;-66
2022/01/07 00:18:06;;;;;;;28.35;11.38;;;-0.60;99.90;;;;;;5052825;28;20021;-67
2022/01/07 00:20:32;;;;;;;19.75;7.80;;;-0.50;99.90;;;;;;5042347;28;20198;-66
2022/01/07 00:22:58;;;;;;;17.15;8.40;;;-0.40;99.90;;;;;;5040931;28;20457;-66
2022/01/07 00:25:24;;;;;;;20.02;7.22;;;-0.40;99.90;;;;;;5051664;28;20053;-66
2022/01/07 00:27:51;;;;;;;15.18;7.50;;;-0.30;99.90;;;;;;5050058;28;20060;-67
2022/01/07 00:30:18;;;;;;;17.75;7.28;;;-0.30;99.90;;;;;;5050921;28;20055;-66
2022/01/07 00:32:44;;;;;;;16.88;7.20;;;-0.30;99.90;;;;;;5049274;28;20074;-67
2022/01/07 00:35:11;;;;;;;20.40;7.35;;;-0.20;99.90;;;;;;5050892;28;20036;-67
2022/01/07 00:37:37;;;;;;;15.63;7.47;;;-0.20;99.90;;;;;;5050054;28;20032;-67
2022/01/07 00:40:09;;;;;;;13.60;7.47;;;-0.30;99.90;;;;;;5051066;28;20040;-66
2022/01/07 00:42:35;;;;;;;13.32;7.20;;;-0.30;99.90;;;;;;5050751;28;20032;-66
2022/01/07 00:45:01;;;;;;;12.05;6.68;;;-0.40;99.90;;;;;;5051032;28;20029;-67
2022/01/07 00:47:27;;;;;;;13.35;6.95;;;-0.50;99.90;;;;;;5049894;28;20040;-69
2022/01/07 00:49:53;;;;;;;15.18;7.35;;;-0.50;99.90;;;;;;5049813;28;20021;-67
2022/01/07 00:52:18;;;;;;;11.45;6.35;;;-0.50;99.90;;;;;;5050549;28;20033;-67
2022/01/07 00:54:44;;;;;;;15.93;6.68;;;-0.50;99.90;;;;;;5051118;28;20102;-67
2022/01/07 00:57:10;;;;;;;17.30;7.15;;;-0.50;99.90;;;;;;5050612;28;20139;-67
2022/01/07 00:59:36;;;;;;;13.75;6.45;;;-0.40;99.90;;;;;;5050100;28;20033;-66
2022/01/07 01:02:02;;;;;;;14.02;6.43;;;-0.40;99.90;;;;;;5053756;28;20488;-67
2022/01/07 01:04:28;;;;;;;13.32;6.70;;;-0.40;99.90;;;;;;5050237;28;20033;-67
2022/01/07 01:06:53;;;;;;;24.02;6.88;;;-0.40;99.90;;;;;;5050865;28;20650;-66
2022/01/07 01:09:19;;;;;;;14.75;6.57;;;-0.40;99.90;;;;;;5050218;28;20025;-67
2022/01/07 01:11:45;;;;;;;17.90;7.30;;;-0.30;99.90;;;;;;5051342;28;20029;-66
2022/01/07 01:14:11;;;;;;;14.15;6.57;;;-0.30;99.90;;;;;;5050557;28;20087;-66
2022/01/07 01:16:37;;;;;;;9.38;6.00;;;-0.20;99.90;;;;;;5041040;28;20476;-66
2022/01/07 01:19:05;;;;;;;18.52;7.28;;;-0.20;99.90;;;;;;5043143;28;20033;-66
2022/01/07 01:21:31;;;;;;;15.98;7.50;;;-0.20;99.90;;;;;;5050436;28;20493;-66
2022/01/07 01:23:57;;;;;;;15.88;7.07;;;-0.20;99.90;;;;;;5049431;28;20135;-66
2022/01/07 01:26:23;;;;;;;12.05;6.82;;;-0.20;99.90;;;;;;5055607;28;20017;-66
2022/01/07 01:28:48;;;;;;;12.20;6.32;;;-0.30;99.90;;;;;;5033088;28;20026;-66
2022/01/07 01:31:16;;;;;;;14.50;6.22;;;-0.30;99.90;;;;;;5049230;28;20037;-67
2022/01/07 01:33:43;;;;;;;13.02;6.03;;;-0.30;99.90;;;;;;5049320;28;20550;-66
2022/01/07 01:36:09;;;;;;;10.98;5.72;;;-0.30;99.90;;;;;;5048950;28;20513;-66
2022/01/07 01:38:36;;;;;;;12.15;6.55;;;-0.30;99.90;;;;;;5040333;28;20037;-66
2022/01/07 01:41:03;;;;;;;15.88;6.90;;;-0.30;99.90;;;;;;5047850;28;20092;-66
2022/01/07 01:43:29;;;;;;;12.93;7.30;;;-0.30;99.90;;;;;;5040607;28;20033;-66
2022/01/07 01:45:54;;;;;;;12.80;6.28;;;-0.40;99.90;;;;;;5047144;28;20026;-66
2022/01/07 01:48:20;;;;;;;14.73;7.15;;;-0.40;99.90;;;;;;5060184;28;20028;-66
2022/01/07 01:50:47;;;;;;;10.77;5.72;;;-0.40;99.90;;;;;;5048472;28;20108;-67
2022/01/07 01:53:14;;;;;;;11.82;5.82;;;-0.40;99.90;;;;;;5068944;28;20029;-66
2022/01/07 01:55:40;;;;;;;15.40;6.47;;;-0.40;99.90;;;;;;5049105;28;20388;-66
2022/01/07 01:58:05;;;;;;;13.35;6.30;;;-0.30;99.90;;;;;;5048059;28;20029;-67
2022/01/07 02:00:31;;;;;;;16.55;6.75;;;-0.30;99.90;;;;;;5048880;28;20029;-66
2022/01/07 02:02:57;;;;;;;12.35;6.30;;;-0.30;99.90;;;;;;5048738;28;20040;-66
2022/01/07 02:05:23;;;;;;;16.38;6.38;;;-0.30;99.90;;;;;;5048684;28;20029;-67
2022/01/07 02:07:49;;;;;;;10.20;5.82;;;-0.30;99.90;;;;;;5047286;28;20032;-66
2022/01/07 02:10:16;;;;;;;15.18;6.53;;;-0.30;99.90;;;;;;5048921;28;20025;-67
2022/01/07 02:12:43;;;;;;;12.00;6.35;;;-0.30;99.90;;;;;;5048638;28;20036;-66
2022/01/07 02:15:10;;;;;;;9.45;5.28;;;-0.40;99.90;;;;;;5051484;28;20029;-66
2022/01/07 02:17:44;;;;;;;14.25;5.80;;;-0.40;99.90;;;;;;5054027;28;20115;-67
2022/01/07 02:20:11;;;;;;;11.75;5.90;;;-0.40;99.90;;;;;;5061885;28;20115;-66
2022/01/07 02:22:37;;;;;;;16.10;5.82;;;-0.40;99.90;;;;;;5052664;28;20063;-66
2022/01/07 02:25:04;;;;;;;11.30;5.45;;;-0.40;99.90;;;;;;5055284;28;20419;-66
2022/01/07 02:27:30;;;;;;;11.02;5.78;;;-0.40;99.90;;;;;;5058048;28;20021;-66
2022/01/07 02:29:57;;;;;;;11.48;5.32;;;-0.40;99.90;;;;;;5052272;28;20116;-66
2022/01/07 02:32:23;;;;;;;10.77;5.60;;;-0.30;99.90;;;;;;5055969;28;20175;-66
2022/01/07 02:34:49;;;;;;;10.50;5.30;;;-0.30;99.90;;;;;;5051953;28;20108;-66
2022/01/07 02:37:15;;;;;;;13.38;6.10;;;-0.40;99.90;;;;;;5052083;28;20074;-66
2022/01/07 02:39:41;;;;;;;12.05;5.60;;;-0.40;99.90;;;;;;5067628;28;20114;-66
2022/01/07 02:42:07;;;;;;;13.60;6.07;;;-0.40;99.90;;;;;;5066753;28;20480;-66
2022/01/07 02:44:33;;;;;;;11.30;5.18;;;-0.40;99.90;;;;;;5052415;28;20102;-66
2022/01/07 02:46:59;;;;;;;13.05;5.55;;;-0.50;99.90;;;;;;5051826;28;20040;-66
2022/01/07 02:49:25;;;;;;;12.68;5.22;;;-0.50;99.90;;;;;;5054111;28;20025;-67
2022/01/07 02:51:51;;;;;;;10.80;5.80;;;-0.50;99.90;;;;;;5052429;28;20439;-67
2022/01/07 02:54:17;;;;;;;10.63;5.22;;;-0.50;99.90;;;;;;5051611;28;20504;-67
2022/01/07 02:56:43;;;;;;;10.02;4.97;;;-0.60;99.90;;;;;;5052482;28;20033;-67
2022/01/07 02:59:09;;;;;;;8.57;4.95;;;-0.60;99.90;;;;;;5051637;28;20029;-67
2022/01/07 03:01:37;;;;;;;9.10;5.40;;;-0.60;99.90;;;;;;5051482;28;20017;-67
2022/01/07 03:04:03;;;;;;;12.93;5.20;;;-0.60;99.90;;;;;;5052166;28;20043;-67
2022/01/07 03:06:30;;;;;;;10.70;4.95;;;-0.60;99.90;;;;;;5051998;28;20124;-67
2022/01/07 03:08:56;;;;;;;18.63;5.50;;;-0.50;99.90;;;;;;5051341;28;20028;-67
2022/01/07 03:11:22;;;;;;;9.90;5.55;;;-0.50;99.90;;;;;;5052073;28;20048;-67
2022/01/07 03:13:48;;;;;;;14.55;5.70;;;-0.50;99.90;;;;;;5051930;28;20029;-67
2022/01/07 03:16:15;;;;;;;12.40;4.88;;;-0.50;99.90;;;;;;5052080;28;20025;-67
2022/01/07 03:18:40;;;;;;;8.35;4.90;;;-0.40;99.90;;;;;;5051035;28;20029;-67
2022/01/07 03:21:06;;;;;;;13.02;4.95;;;-0.40;99.90;;;;;;5051533;28;20021;-67
2022/01/07 03:23:33;;;;;;;12.20;4.93;;;-0.40;99.90;;;;;;5051722;28;20124;-67
2022/01/07 03:25:59;;;;;;;11.25;5.40;;;-0.30;99.90;;;;;;5048933;28;20028;-67
2022/01/07 03:28:25;;;;;;;10.25;5.05;;;-0.20;99.90;;;;;;5046487;28;20452;-67
2022/01/07 03:30:51;;;;;;;11.10;5.32;;;-0.30;99.90;;;;;;5051936;28;20119;-67
2022/01/07 03:33:19;;;;;;;11.40;4.90;;;-0.30;99.90;;;;;;5052141;28;20564;-67
2022/01/07 03:35:45;;;;;;;8.45;5.00;;;-0.30;99.90;;;;;;5051029;28;20110;-67
2022/01/07 03:38:11;;;;;;;8.50;5.05;;;-0.30;99.90;;;;;;5051654;28;20486;-67
2022/01/07 03:40:37;;;;;;;10.20;4.82;;;-0.30;99.90;;;;;;5051451;28;20029;-67
2022/01/07 03:43:03;;;;;;;13.38;5.05;;;-0.30;99.90;;;;;;5051476;28;20036;-67
2022/01/07 03:45:28;;;;;;;7.85;4.60;;;-0.30;99.90;;;;;;5052754;28;20392;-67
2022/01/07 03:47:54;;;;;;;12.20;5.30;;;-0.30;99.90;;;;;;5058429;28;20027;-67
2022/01/07 03:50:22;;;;;;;9.30;4.65;;;-0.30;99.90;;;;;;5050789;28;20099;-67
2022/01/07 03:52:49;;;;;;;13.02;5.22;;;-0.40;99.90;;;;;;5050805;28;20115;-67
2022/01/07 03:55:18;;;;;;;11.35;4.85;;;-0.40;99.90;;;;;;5050954;28;20071;-66
2022/01/07 03:57:44;;;;;;;8.93;5.00;;;-0.40;99.90;;;;;;5050309;28;20505;-67
2022/01/07 04:00:17;;;;;;;10.85;4.93;;;-0.50;99.90;;;;;;5050959;28;20393;-67
2022/01/07 04:02:44;;;;;;;12.10;5.10;;;-0.50;99.90;;;;;;5055340;28;20071;-67
2022/01/07 04:05:10;;;;;;;10.82;5.30;;;-0.50;99.90;;;;;;5047000;28;20020;-67
2022/01/07 04:07:36;;;;;;;11.95;5.50;;;-0.60;99.90;;;;;;5045844;28;20017;-67
2022/01/07 04:10:03;;;;;;;9.77;4.90;;;-0.60;99.90;;;;;;5051251;28;20025;-67
2022/01/07 04:12:29;;;;;;;12.02;5.68;;;-0.60;99.90;;;;;;5050610;28;20052;-67
2022/01/07 04:15:16;;;;;;;10.07;5.05;;;-0.70;99.90;;;;;;5055752;28;20067;-67
2022/01/07 04:17:44;;;;;;;7.20;4.72;;;-0.70;99.90;;;;;;5063640;28;20493;-67
2022/01/07 04:20:13;;;;;;;10.40;5.13;;;-0.70;99.90;;;;;;5050540;28;20127;-67
2022/01/07 04:22:39;;;;;;;10.57;5.18;;;-0.70;99.90;;;;;;5050342;28;20044;-67
2022/01/07 04:25:08;;;;;;;12.57;5.63;;;-0.70;99.90;;;;;;5070642;28;20055;-67
2022/01/07 04:27:35;;;;;;;10.85;5.18;;;-0.70;99.90;;;;;;5054421;28;20017;-67
2022/01/07 04:30:01;;;;;;;14.00;5.40;;;-0.70;99.90;;;;;;5058175;28;20112;-67
2022/01/07 04:32:27;;;;;;;14.55;5.80;;;-0.60;99.90;;;;;;5050240;28;20061;-67
2022/01/07 04:34:53;;;;;;;9.07;5.22;;;-0.60;99.90;;;;;;5046713;28;20064;-67
2022/01/07 04:37:19;;;;;;;12.25;6.03;;;-0.60;99.90;;;;;;5048984;28;20131;-67
2022/01/07 04:39:45;;;;;;;12.82;6.00;;;-0.50;99.90;;;;;;5051875;28;20067;-67
2022/01/07 04:42:11;;;;;;;12.85;5.60;;;-0.50;99.90;;;;;;5050015;28;20029;-67
2022/01/07 04:44:40;;;;;;;12.57;5.72;;;-0.50;99.90;;;;;;5050530;28;20021;-67
2022/01/07 04:47:07;;;;;;;12.80;5.72;;;-0.50;99.90;;;;;;5049382;28;20106;-67
2022/01/07 04:49:32;;;;;;;12.10;5.88;;;-0.50;99.90;;;;;;5048124;28;20021;-67
2022/01/07 04:51:58;;;;;;;15.50;5.60;;;-0.50;99.90;;;;;;5050901;28;20040;-67
2022/01/07 04:54:24;;;;;;;11.30;5.88;;;-0.50;99.90;;;;;;5051326;28;20029;-67
2022/01/07 04:56:50;;;;;;;11.30;5.30;;;-0.40;99.90;;;;;;5050716;28;20047;-67
2022/01/07 05:01:43;;;;;;;10.70;5.43;;;-0.40;99.90;;;;;;5069134;28;20131;-69
2022/01/07 05:04:09;;;;;;;11.45;5.55;;;-0.50;99.90;;;;;;5062972;28;20150;-67
2022/01/07 05:06:45;;;;;;;16.92;5.68;;;-0.50;99.90;;;;;;5066036;28;20403;-68
2022/01/07 05:09:16;;;;;;;13.10;5.03;;;-0.50;99.90;;;;;;5059402;28;20057;-69
2022/01/07 05:11:46;;;;;;;17.50;5.57;;;-0.50;99.90;;;;;;5064232;28;20021;-68
2022/01/07 05:14:13;;;;;;;14.27;5.38;;;-0.50;99.90;;;;;;5067856;28;20016;-69
2022/01/07 05:16:39;;;;;;;11.23;5.63;;;-0.50;99.90;;;;;;5064806;28;20508;-68
2022/01/07 05:19:04;;;;;;;10.38;5.53;;;-0.60;99.90;;;;;;5062243;28;20120;-69
2022/01/07 05:21:30;;;;;;;14.52;5.03;;;-0.60;99.90;;;;;;5068817;28;20044;-69
2022/01/07 05:23:56;;;;;;;14.55;5.50;;;-0.60;99.90;;;;;;5068413;28;20562;-68
2022/01/07 05:26:22;;;;;;;13.93;5.35;;;-0.60;99.90;;;;;;5064893;28;20021;-67
2022/01/07 05:28:48;;;;;;;11.65;4.97;;;-0.60;99.90;;;;;;5066245;28;20073;-68
2022/01/07 05:31:13;;;;;;;10.55;4.88;;;-0.60;99.90;;;;;;5068643;28;20024;-68
2022/01/07 05:33:39;;;;;;;12.70;5.47;;;-0.60;99.90;;;;;;5066515;28;20491;-67
2022/01/07 05:36:05;;;;;;;12.23;5.13;;;-0.60;99.90;;;;;;5062678;28;20453;-68
2022/01/07 05:38:30;;;;;;;15.68;5.55;;;-0.60;99.90;;;;;;5060116;28;20043;-69
2022/01/07 05:40:56;;;;;;;14.07;5.20;;;-0.60;99.90;;;;;;5069253;28;20038;-68
2022/01/07 05:43:22;;;;;;;15.60;5.60;;;-0.60;99.90;;;;;;5063916;28;20101;-69
2022/01/07 05:45:47;;;;;;;11.38;5.00;;;-0.60;99.90;;;;;;5075891;28;20116;-67
2022/01/07 05:48:13;;;;;;;7.63;5.10;;;-0.60;99.90;;;;;;5065367;28;20111;-66
2022/01/07 05:50:42;;;;;;;11.27;5.15;;;-0.60;99.90;;;;;;5064902;28;20387;-66
2022/01/07 05:53:08;;;;;;;12.65;5.07;;;-0.60;99.90;;;;;;5065758;28;20127;-66
2022/01/07 05:55:33;;;;;;;11.32;5.22;;;-0.70;99.90;;;;;;5062787;28;20025;-66
2022/01/07 05:57:59;;;;;;;8.90;4.85;;;-0.70;99.90;;;;;;5059214;28;20381;-67
2022/01/07 06:00:25;;;;;;;10.35;5.03;;;-0.70;99.90;;;;;;5067461;28;20037;-67
2022/01/07 06:02:51;;;;;;;9.25;5.05;;;-0.70;99.90;;;;;;5069122;28;20017;-68
2022/01/07 06:05:16;;;;;;;10.90;4.97;;;-0.70;99.90;;;;;;5067535;28;20434;-66
2022/01/07 06:07:42;;;;;;;10.70;4.97;;;-0.70;99.90;;;;;;5065141;28;20116;-66
2022/01/07 06:10:09;;;;;;;12.20;5.00;;;-0.70;99.90;;;;;;5057553;28;20063;-67
2022/01/07 06:12:34;;;;;;;13.05;5.57;;;-0.70;99.90;;;;;;5064578;28;20035;-67
2022/01/07 06:15:00;;;;;;;13.32;5.50;;;-0.70;99.90;;;;;;5068280;28;20036;-67
2022/01/07 06:17:26;;;;;;;8.00;4.72;;;-0.70;99.90;;;;;;5065013;28;20032;-67
2022/01/07 06:19:52;;;;;;;11.15;5.18;;;-0.60;99.90;;;;;;5066587;28;20029;-66
2022/01/07 06:22:18;;;;;;;13.10;5.53;;;-0.70;99.90;;;;;;5065006;28;20060;-67
2022/01/07 06:24:44;;;;;;;11.55;4.90;;;-0.60;99.90;;;;;;5069024;28;20504;-66
2022/01/07 06:27:10;;;;;;;16.38;5.70;;;-0.60;99.90;;;;;;5059564;28;20767;-66
2022/01/07 06:29:37;;;;;;;8.25;4.75;;;-0.60;99.90;;;;;;5068162;28;20025;-66
2022/01/07 06:32:04;;;;;;;8.82;4.93;;;-0.60;99.90;;;;;;5068960;28;20035;-66
2022/01/07 06:34:30;;;;;;;14.73;5.53;;;-0.60;99.90;;;;;;5069099;28;20040;-66
2022/01/07 06:36:58;;;;;;;11.07;5.05;;;-0.60;99.90;;;;;;5068673;28;20029;-67
2022/01/07 06:39:24;;;;;;;9.90;4.88;;;-0.60;99.90;;;;;;5068478;28;20035;-66
2022/01/07 06:41:50;;;;;;;14.13;4.78;;;-0.60;99.90;;;;;;5062920;28;20029;-66
2022/01/07 06:44:17;;;;;;;12.25;5.20;;;-0.60;99.90;;;;;;5068221;28;20016;-66
2022/01/07 06:46:43;;;;;;;11.77;5.30;;;-0.70;99.90;;;;;;5067743;28;20441;-66
2022/01/07 06:49:09;;;;;;;8.48;4.60;;;-0.60;99.90;;;;;;5064933;28;20159;-67
2022/01/07 06:51:35;;;;;;;8.52;4.95;;;-0.60;99.90;;;;;;5058758;28;20025;-66
2022/01/07 06:54:00;;;;;;;9.25;4.80;;;-0.60;99.90;;;;;;5062473;28;20032;-66
2022/01/07 06:56:28;;;;;;;11.90;4.72;;;-0.60;99.90;;;;;;5078739;28;20361;-66
2022/01/07 06:58:53;;;;;;;9.02;5.03;;;-0.60;99.90;;;;;;5058546;28;20108;-67
2022/01/07 07:01:20;;;;;;;10.25;5.00;;;-0.60;99.90;;;;;;5066468;28;20163;-69
2022/01/07 07:03:45;;;;;;;10.25;4.90;;;-0.60;99.90;;;;;;5060036;28;20033;-67
2022/01/07 07:06:12;;;;;;;9.88;4.47;;;-0.70;99.90;;;;;;5068339;28;20020;-66
2022/01/07 07:08:38;;;;;;;15.05;6.25;;;-0.70;99.90;;;;;;5071805;28;20477;-66
2022/01/07 07:11:04;;;;;;;12.48;5.03;;;-0.60;99.90;;;;;;5060746;28;20053;-66
2022/01/07 07:13:29;;;;;;;10.32;4.82;;;-0.60;99.90;;;;;;5066036;28;20032;-67
2022/01/07 07:15:55;;;;;;;9.45;5.18;;;-0.60;99.90;;;;;;5063886;28;20037;-67
2022/01/07 07:18:21;;;;;;;13.48;7.53;;;-0.70;99.90;;;;;;5064258;28;20028;-67
2022/01/07 07:20:46;;;;;;;13.00;6.90;;;-0.70;99.90;;;;;;5070501;28;20424;-66
2022/01/07 07:23:12;;;;;;;13.48;5.90;;;-0.60;99.90;;;;;;5070770;28;20086;-66
2022/01/07 07:25:38;;;;;;;13.13;5.75;;;-0.70;99.90;;;;;;5072143;28;20028;-66
2022/01/07 07:28:04;;;;;;;11.98;6.10;;;-0.70;99.90;;;;;;5060999;28;20028;-67
2022/01/07 07:30:35;;;;;;;16.13;6.70;;;-0.70;99.90;;;;;;5071429;28;20035;-67
2022/01/07 07:33:30;;;;;;;12.10;5.82;;;-0.70;99.90;;;;;;5063681;28;20059;-67
2022/01/07 07:38:40;;;;;;;12.65;6.32;;;-0.70;99.90;;;;;;5066055;28;20082;-70
2022/01/07 07:41:07;;;;;;;10.73;6.13;;;-0.70;99.90;;;;;;5066164;28;20066;-67
2022/01/07 07:43:33;;;;;;;8.68;5.70;;;-0.70;99.90;;;;;;5065664;28;20082;-67
2022/01/07 07:45:59;;;;;;;12.20;5.80;;;-0.70;99.90;;;;;;5066675;28;20053;-67
2022/01/07 07:48:25;;;;;;;10.82;5.97;;;-0.70;99.90;;;;;;5064941;28;20143;-67
2022/01/07 07:50:51;;;;;;;13.38;6.38;;;-0.70;99.90;;;;;;5067418;28;20043;-67
2022/01/07 07:53:18;;;;;;;12.43;6.25;;;-0.70;99.90;;;;;;5059618;28;20162;-67
2022/01/07 07:55:48;;;;;;;12.23;6.00;;;-0.70;99.90;;;;;;5067297;28;20055;-67
2022/01/07 07:58:14;;;;;;;11.13;6.15;;;-0.70;99.90;;;;;;5068260;28;20021;-67
2022/01/07 08:00:40;;;;;;;13.05;5.90;;;-0.70;99.90;;;;;;5066149;28;20409;-67
2022/01/07 08:03:06;;;;;;;9.65;5.63;;;-0.60;99.90;;;;;;5061985;28;20086;-67
2022/01/07 08:05:31;;;;;;;10.23;6.00;;;-0.60;99.90;;;;;;5060075;28;20536;-66
2022/01/07 08:08:02;;;;;;;12.48;6.28;;;-0.50;99.90;;;;;;5070479;28;20120;-66
2022/01/07 08:10:28;;;;;;;10.50;6.20;;;-0.50;99.90;;;;;;5070044;28;20397;-66
2022/01/07 08:13:26;;;;;;;13.35;5.95;;;-0.50;99.90;;;;;;5059431;28;20660;-65
2022/01/07 08:15:59;;;;;;;16.10;8.13;;;-0.50;99.90;;;;;;5060546;28;20033;-67
2022/01/07 08:18:25;;;;;;;8.52;5.35;;;-0.40;99.90;;;;;;5068115;28;20215;-66
2022/01/07 08:20:51;;;;;;;9.88;5.25;;;-0.40;99.90;;;;;;5061167;28;20120;-66
2022/01/07 08:23:18;;;;;;;9.95;6.25;;;-0.40;99.90;;;;;;5067634;28;20549;-66
2022/01/07 08:25:44;;;;;;;12.30;5.95;;;-0.30;99.90;;;;;;5069607;28;20061;-66
2022/01/07 08:28:12;;;;;;;10.43;6.18;;;-0.30;99.90;;;;;;5062432;28;20020;-66
2022/01/07 08:30:59;;;;;;;10.70;6.07;;;-0.30;99.90;;;;;;5058243;28;20029;-67
2022/01/07 08:36:09;;;;;;;12.18;5.10;;;-0.30;99.90;;;;;;5063953;28;20047;-66
2022/01/07 08:38:35;;;;;;;9.05;5.32;;;-0.30;99.90;;;;;;5078408;28;20116;-67
2022/01/07 08:41:01;;;;;;;10.25;5.57;;;-0.30;99.90;;;;;;5065894;28;20116;-67
2022/01/07 08:43:27;;;;;;;7.28;4.78;;;-0.20;99.90;;;;;;5070944;28;20523;-66
2022/01/07 08:45:53;;;;;;;9.02;6.07;;;-0.30;99.90;;;;;;5067520;28;20028;-66
2022/01/07 08:48:18;;;;;;;9.40;5.28;;;-0.20;99.90;;;;;;5065086;28;20016;-65
2022/01/07 08:50:44;;;;;;;11.23;6.28;;;-0.20;99.90;;;;;;5061707;28;20650;-66
2022/01/07 08:53:13;;;;;;;13.20;5.30;;;-0.30;99.90;;;;;;5070235;28;20028;-65
2022/01/07 08:55:39;;;;;;;12.05;5.00;;;-0.30;99.90;;;;;;5063388;28;20025;-66
2022/01/07 08:58:05;;;;;;;9.23;4.90;;;-0.30;99.90;;;;;;5066041;28;20040;-66
2022/01/07 09:00:32;;;;;;;9.85;5.50;;;-0.20;99.90;;;;;;5064668;28;20041;-66
2022/01/07 09:02:59;;;;;;;8.88;5.07;;;-0.20;99.90;;;;;;5063754;28;20032;-66
2022/01/07 09:05:24;;;;;;;13.23;5.18;;;-0.20;99.90;;;;;;5066054;28;20428;-65
2022/01/07 09:07:50;;;;;;;7.00;4.82;;;-0.20;99.90;;;;;;5060369;28;20139;-66
2022/01/07 09:10:16;;;;;;;10.50;5.72;;;-0.20;99.90;;;;;;5069862;28;20484;-66
2022/01/07 09:12:42;;;;;;;12.15;5.97;;;-0.20;99.90;;;;;;5067178;28;20036;-66
2022/01/07 09:15:08;;;;;;;13.77;6.72;;;-0.20;99.90;;;;;;5060968;28;20021;-66
2022/01/07 09:17:35;;;;;;;9.75;5.68;;;-0.10;99.90;;;;;;5063386;28;20036;-66
2022/01/07 09:20:02;;;;;;;8.88;5.57;;;-0.10;99.90;;;;;;5057733;28;20029;-66
2022/01/07 09:22:28;;;;;;;12.70;5.13;;;-0.10;99.90;;;;;;5063070;28;20032;-67
2022/01/07 09:24:53;;;;;;;6.68;4.60;;;0.00;99.90;;;;;;5061091;28;20228;-68
2022/01/07 09:27:19;;;;;;;12.95;5.93;;;0.00;99.90;;;;;;5069595;28;20664;-65
2022/01/07 09:29:46;;;;;;;7.43;4.82;;;0.00;99.90;;;;;;5058137;28;20024;-65
2022/01/07 09:32:12;;;;;;;10.32;5.45;;;0.00;99.90;;;;;;5064697;28;20029;-66
2022/01/07 09:34:38;;;;;;;8.55;5.07;;;0.00;99.90;;;;;;5062617;28;20027;-65
2022/01/07 09:37:05;;;;;;;13.82;5.95;;;0.00;99.90;;;;;;5064949;28;20440;-66
2022/01/07 09:39:32;;;;;;;6.88;4.85;;;0.00;99.90;;;;;;5064561;28;20028;-66
2022/01/07 09:42:00;;;;;;;9.65;5.53;;;0.10;99.90;;;;;;5058187;28;20029;-66
2022/01/07 09:44:26;;;;;;;8.70;5.38;;;0.10;99.90;;;;;;5066208;28;20035;-65
2022/01/07 09:46:52;;;;;;;8.90;5.40;;;0.10;99.90;;;;;;5069302;28;20025;-65
2022/01/07 09:49:17;;;;;;;13.13;5.40;;;0.10;99.90;;;;;;5066894;28;20499;-66
2022/01/07 09:51:43;;;;;;;9.27;5.40;;;0.20;99.90;;;;;;5056704;28;20058;-66
2022/01/07 09:54:09;;;;;;;10.43;5.68;;;0.20;99.90;;;;;;5060612;28;20048;-65
2022/01/07 09:56:36;;;;;;;10.80;5.50;;;0.20;99.90;;;;;;5068405;28;20049;-66
2022/01/07 09:59:05;;;;;;;9.50;5.10;;;0.20;99.90;;;;;;5069023;28;20047;-65
2022/01/07 10:01:31;;;;;;;8.45;5.10;;;0.30;99.90;;;;;;5067474;28;20459;-67
2022/01/07 10:03:57;;;;;;;8.35;5.00;;;0.30;99.90;;;;;;5067730;28;20032;-66
2022/01/07 10:06:27;;;;;;;10.55;6.57;;;0.30;99.90;;;;;;5063688;28;20021;-65
2022/01/07 10:09:13;;;;;;;8.98;4.88;;;0.30;99.90;;;;;;5066237;28;20028;-65
2022/01/07 10:11:39;;;;;;;7.50;5.03;;;0.40;99.90;;;;;;5066992;28;20071;-66
2022/01/07 10:14:19;;;;;;;8.02;4.60;;;0.40;99.90;;;;;;5063270;28;20484;-66
2022/01/07 10:16:55;;;;;;;7.47;5.22;;;0.40;99.90;;;;;;5065980;28;20496;-66
2022/01/07 10:19:36;;;;;;;8.10;5.13;;;0.40;99.90;;;;;;5064656;28;20029;-65
2022/01/07 10:22:04;;;;;;;8.18;4.93;;;0.50;99.90;;;;;;5067415;28;20028;-66
2022/01/07 10:24:29;;;;;;;9.55;5.28;;;0.50;99.90;;;;;;5067124;28;20021;-66
2022/01/07 10:27:10;;;;;;;8.52;5.05;;;0.50;99.90;;;;;;5067201;28;20024;-66
2022/01/07 10:29:44;;;;;;;9.07;5.10;;;0.50;99.90;;;;;;5066478;28;20020;-66
2022/01/07 10:32:23;;;;;;;8.93;4.93;;;0.60;99.90;;;;;;5082699;28;20388;-65
2022/01/07 10:35:06;;;;;;;7.13;5.28;;;0.60;99.90;;;;;;5066738;28;20028;-65
2022/01/07 10:37:44;;;;;;;8.18;4.82;;;0.60;99.90;;;;;;5066615;28;20100;-65
2022/01/07 10:40:29;;;;;;;9.88;5.05;;;0.60;99.90;;;;;;5064853;28;20120;-66
2022/01/07 10:43:16;;;;;;;10.23;4.72;;;0.70;99.90;;;;;;5063634;28;20142;-65
2022/01/07 10:45:46;;;;;;;7.25;4.95;;;0.70;99.90;;;;;;5068297;28;20078;-66
2022/01/07 10:48:12;;;;;;;8.40;4.80;;;0.70;99.90;;;;;;5073335;28;20048;-66
2022/01/07 10:50:44;;;;;;;7.18;4.80;;;0.70;99.90;;;;;;5071524;28;20032;-66
2022/01/07 10:53:23;;;;;;;8.18;5.15;;;0.70;99.90;;;;;;5078975;28;20055;-65
2022/01/07 10:56:00;;;;;;;11.55;5.13;;;0.80;99.90;;;;;;5076898;28;20051;-65
2022/01/07 10:58:26;;;;;;;7.72;4.80;;;0.80;99.90;;;;;;5060061;28;20036;-65
2022/01/07 11:00:52;;;;;;;8.30;5.20;;;0.80;99.90;;;;;;5063056;28;20035;-66
2022/01/07 11:03:18;;;;;;;6.28;4.30;;;0.80;99.90;;;;;;5068816;28;20024;-65
2022/01/07 11:05:44;;;;;;;9.13;5.43;;;0.80;99.90;;;;;;5068200;28;20145;-66
2022/01/07 11:08:11;;;;;;;10.52;5.28;;;0.80;99.90;;;;;;5063329;28;20480;-66
2022/01/07 11:10:36;;;;;;;14.57;7.70;;;0.80;99.90;;;;;;5071456;28;20031;-66
2022/01/07 11:13:03;;;;;;;8.93;5.22;;;0.80;99.90;;;;;;5072184;28;20044;-65
2022/01/07 11:15:29;;;;;;;10.23;5.50;;;0.80;99.90;;;;;;5071606;28;20115;-65
2022/01/07 11:17:54;;;;;;;9.13;5.53;;;0.80;99.90;;;;;;5068357;28;20445;-66
2022/01/07 11:20:24;;;;;;;8.82;5.55;;;0.80;99.90;;;;;;5060828;28;20024;-65
2022/01/07 11:22:51;;;;;;;9.40;6.00;;;0.70;99.90;;;;;;5070227;28;20071;-65
2022/01/07 11:25:17;;;;;;;12.07;6.78;;;0.70;99.90;;;;;;5066790;28;20513;-65
2022/01/07 11:27:50;;;;;;;11.43;6.28;;;0.70;99.90;;;;;;5059556;28;20044;-67
2022/01/07 11:30:18;;;;;;;12.23;6.80;;;0.70;99.90;;;;;;5071640;28;20519;-65
2022/01/07 11:32:51;;;;;;;12.23;6.60;;;0.60;99.90;;;;;;5063272;28;20033;-66
2022/01/07 11:37:55;;;;;;;10.10;6.30;;;0.50;99.90;;;;;;4988073;28;20053;-67
2022/01/07 11:40:33;;;;;;;10.32;6.95;;;0.60;99.90;;;;;;5011664;28;20022;-67
2022/01/07 11:43:31;;;;;;;10.98;6.97;;;0.60;99.90;;;;;;4993612;28;20030;-67
2022/01/07 11:45:59;;;;;;;13.52;6.88;;;0.50;99.90;;;;;;4995143;28;20039;-67
2022/01/07 11:48:27;;;;;;;11.85;6.97;;;0.50;99.90;;;;;;4986146;28;20022;-67
2022/01/07 11:50:56;;;;;;;14.90;7.80;;;0.60;99.90;;;;;;4994199;28;20022;-67
2022/01/07 11:53:25;;;;;;;12.98;7.93;;;0.60;99.90;;;;;;4995003;28;20034;-67
2022/01/07 11:55:57;;;;;;;16.85;6.72;;;0.60;99.90;;;;;;4996940;28;20376;-67
2022/01/07 11:58:39;;;;;;;11.38;6.68;;;0.60;99.90;;;;;;4991925;28;20498;-67
2022/01/07 12:01:05;;;;;;;13.60;6.20;;;0.60;99.90;;;;;;5016165;28;20030;-67
2022/01/07 12:03:34;;;;;;;12.45;6.93;;;0.60;99.90;;;;;;4992090;28;20426;-69
2022/01/07 12:06:21;;;;;;;11.85;6.03;;;0.60;99.90;;;;;;5012205;28;20030;-67
2022/01/07 12:08:59;;;;;;;13.27;6.82;;;0.60;99.90;;;;;;5011993;28;20498;-67
2022/01/07 12:11:28;;;;;;;9.20;6.30;;;0.60;99.90;;;;;;4992180;28;20109;-67
2022/01/07 12:13:54;;;;;;;9.43;5.95;;;0.60;99.90;;;;;;4988603;28;20113;-67
2022/01/07 12:16:28;;;;;;;12.15;6.05;;;0.60;99.90;;;;;;5007077;28;20022;-67
2022/01/07 12:19:35;;;;;;;13.65;6.43;;;0.60;99.90;;;;;;5005795;28;20026;-67
2022/01/07 12:22:02;;;;;;;12.63;6.32;;;0.60;99.90;;;;;;4986348;28;20034;-67
2022/01/07 12:24:31;;;;;;;9.65;5.82;;;0.60;99.90;;;;;;4998840;28;20032;-67
2022/01/07 12:27:09;;;;;;;11.52;5.95;;;0.60;99.90;;;;;;5006535;28;20383;-67
2022/01/07 12:29:37;;;;;;;9.57;5.82;;;0.60;99.90;;;;;;5009762;28;20105;-67
2022/01/07 12:32:05;;;;;;;9.32;5.88;;;0.70;99.90;;;;;;4992061;28;20037;-67
2022/01/07 12:34:37;;;;;;;8.85;6.07;;;0.60;99.90;;;;;;5011454;28;20112;-67
2022/01/07 12:37:05;;;;;;;;;;;0.70;99.90;;;;;;4991627;28;20113;-66
2022/01/07 12:39:32;;;;;;;9.95;6.35;;;0.70;99.90;;;;;;4992397;28;19913;-67
2022/01/07 12:41:58;;;;;;;10.20;5.90;;;0.70;99.90;;;;;;5005204;28;20113;-67
2022/01/07 12:44:25;;;;;;;16.55;7.95;;;0.60;99.90;;;;;;4992622;28;20546;-67
2022/01/07 12:46:56;;;;;;;10.07;5.82;;;0.70;99.90;;;;;;4999138;28;20390;-67
2022/01/07 12:49:33;;;;;;;9.23;5.35;;;0.70;99.90;;;;;;4992871;28;20081;-67
2022/01/07 12:52:04;;;;;;;12.82;5.82;;;0.70;99.90;;;;;;5005633;28;20126;-67
2022/01/07 12:54:30;;;;;;;12.25;6.07;;;0.70;99.90;;;;;;4996044;28;20447;-67
2022/01/07 12:56:56;;;;;;;10.75;6.63;;;0.70;99.90;;;;;;4989281;28;20030;-67